createdAt,value
2024-01-09T00:00:44.219Z,9.48
2024-01-09T00:03:11.747Z,9.30
2024-01-09T00:05:39.418Z,6.57
2024-01-09T00:08:07.076Z,10.23
2024-01-09T00:10:34.534Z,11.75
2024-01-09T00:13:02.002Z,8.02
2024-01-09T00:15:29.457Z,10.35
2024-01-09T00:17:57.002Z,10.15
2024-01-09T00:20:24.718Z,9.52
2024-01-09T00:22:53.404Z,9.95
2024-01-09T00:25:20.812Z,11.48
2024-01-09T00:27:48.317Z,11.20
2024-01-09T00:30:15.961Z,9.93
2024-01-09T00:32:48.496Z,13.82
2024-01-09T00:35:16.245Z,8.13
2024-01-09T00:37:44.252Z,10.27
2024-01-09T00:40:11.743Z,7.60
2024-01-09T00:42:39.174Z,8.68
2024-01-09T00:45:08.561Z,14.13
2024-01-09T00:47:36.705Z,12.95
2024-01-09T00:50:04.302Z,11.35
2024-01-09T00:52:31.819Z,9.10
2024-01-09T00:54:59.261Z,10.60
2024-01-09T00:57:27.101Z,11.95
2024-01-09T00:59:55.037Z,10.77
2024-01-09T01:02:22.749Z,13.02
2024-01-09T01:04:50.318Z,17.20
2024-01-09T01:07:17.856Z,17.23
2024-01-09T01:09:45.257Z,10.02
2024-01-09T01:12:15.068Z,12.10
2024-01-09T01:14:42.541Z,14.35
2024-01-09T01:17:10.045Z,9.50
2024-01-09T01:19:39.888Z,9.32
2024-01-09T01:22:07.343Z,7.28
2024-01-09T01:24:34.829Z,10.70
2024-01-09T01:27:02.260Z,12.38
2024-01-09T01:29:29.883Z,11.48
2024-01-09T01:31:57.320Z,11.65
2024-01-09T01:34:24.783Z,9.73
2024-01-09T01:36:52.226Z,12.55
2024-01-09T01:39:19.633Z,9.68
2024-01-09T01:41:47.112Z,11.77
2024-01-09T01:44:19.297Z,14.98
2024-01-09T01:46:47.898Z,15.88
2024-01-09T01:49:16.365Z,13.18
2024-01-09T01:51:45.048Z,16.63
2024-01-09T01:54:14.118Z,15.52
2024-01-09T01:56:45.892Z,14.90
2024-01-09T01:59:15.833Z,14.43
2024-01-09T02:01:44.931Z,9.18
2024-01-09T02:04:12.927Z,13.10
2024-01-09T02:06:40.990Z,9.38
2024-01-09T02:09:08.843Z,9.23
2024-01-09T02:11:36.294Z,11.70
2024-01-09T02:14:04.790Z,7.82
2024-01-09T02:16:32.251Z,13.27
2024-01-09T02:18:59.704Z,13.77
2024-01-09T02:21:27.163Z,16.30
2024-01-09T02:23:54.946Z,11.27
2024-01-09T02:26:39.672Z,12.05
2024-01-09T02:29:11.295Z,15.52
2024-01-09T02:31:38.764Z,12.95
2024-01-09T02:34:08.284Z,11.23
2024-01-09T02:36:35.933Z,13.40
2024-01-09T02:39:03.338Z,14.93
2024-01-09T02:41:30.768Z,10.65
2024-01-09T02:43:58.406Z,10.82
2024-01-09T02:46:25.841Z,12.07
2024-01-09T02:48:53.467Z,9.50
2024-01-09T02:51:20.930Z,13.50
2024-01-09T02:53:49.373Z,12.52
2024-01-09T02:56:16.849Z,8.05
2024-01-09T02:58:44.327Z,10.65
2024-01-09T03:01:12.362Z,8.60
2024-01-09T03:03:39.895Z,11.65
2024-01-09T03:06:07.589Z,7.00
2024-01-09T03:08:35.108Z,8.40
2024-01-09T03:11:02.615Z,14.70
2024-01-09T03:13:30.129Z,24.65
2024-01-09T03:15:57.531Z,17.60
2024-01-09T03:18:25.747Z,14.80
2024-01-09T03:20:53.346Z,21.13
2024-01-09T03:23:20.780Z,14.80
2024-01-09T03:25:48.179Z,14.10
2024-01-09T03:28:15.680Z,15.52
2024-01-09T03:30:43.141Z,10.25
2024-01-09T03:33:10.944Z,6.78
2024-01-09T03:35:38.572Z,11.50
2024-01-09T03:38:06.041Z,13.43
2024-01-09T03:40:33.556Z,18.38
2024-01-09T03:43:01.216Z,13.65
2024-01-09T03:45:28.648Z,15.48
2024-01-09T03:47:56.204Z,12.02
2024-01-09T03:50:24.195Z,13.10
2024-01-09T03:52:51.689Z,15.63
2024-01-09T03:55:19.088Z,9.43
2024-01-09T03:57:46.520Z,11.15
2024-01-09T04:00:15.619Z,9.95
2024-01-09T04:02:43.057Z,9.63
2024-01-09T04:05:10.531Z,12.05
2024-01-09T04:07:37.974Z,13.57
2024-01-09T04:10:05.717Z,11.98
2024-01-09T04:12:33.182Z,12.68
2024-01-09T04:15:00.809Z,11.18
2024-01-09T04:17:29.412Z,15.57
2024-01-09T04:19:57.037Z,18.33
2024-01-09T04:22:24.509Z,15.20
2024-01-09T04:24:52.023Z,14.95
2024-01-09T04:27:19.453Z,9.80
2024-01-09T04:29:47.304Z,12.18
2024-01-09T04:32:14.808Z,10.23
2024-01-09T04:34:42.337Z,13.02
2024-01-09T04:37:09.707Z,11.48
2024-01-09T04:39:37.151Z,10.90
2024-01-09T04:42:04.482Z,3.92
2024-01-09T04:44:32.053Z,12.68
2024-01-09T04:46:59.528Z,10.93
2024-01-09T04:49:27.259Z,15.88
2024-01-09T04:51:54.706Z,12.15
2024-01-09T04:54:22.130Z,24.95
2024-01-09T04:56:49.691Z,14.93
2024-01-09T04:59:17.823Z,13.38
2024-01-09T05:01:52.749Z,9.98
2024-01-09T05:04:20.217Z,8.57
2024-01-09T05:06:47.758Z,11.75
2024-01-09T05:09:15.279Z,11.80
2024-01-09T05:11:42.777Z,13.60
2024-01-09T05:14:10.285Z,13.73
2024-01-09T05:16:37.734Z,20.90
2024-01-09T05:19:05.244Z,19.00
2024-01-09T05:21:32.751Z,15.60
2024-01-09T05:24:00.196Z,10.00
2024-01-09T05:26:27.723Z,22.10
2024-01-09T05:28:55.187Z,22.10
2024-01-09T05:31:22.838Z,18.83
2024-01-09T05:33:50.410Z,12.27
2024-01-09T05:36:23.371Z,9.55
2024-01-09T05:38:54.206Z,10.32
2024-01-09T05:41:25.146Z,13.73
2024-01-09T05:43:52.828Z,11.85
2024-01-09T05:46:20.337Z,14.60
2024-01-09T05:48:50.332Z,13.38
2024-01-09T05:53:51.218Z,13.32
2024-01-09T05:56:19.173Z,12.20
2024-01-09T05:58:48.374Z,16.63
2024-01-09T06:01:15.937Z,19.80
2024-01-09T06:03:43.455Z,28.67
2024-01-09T06:06:11.170Z,23.52
2024-01-09T06:08:39.005Z,22.77
2024-01-09T06:11:06.725Z,21.15
2024-01-09T06:13:34.140Z,31.45
2024-01-09T06:16:01.590Z,24.35
2024-01-09T06:18:29.063Z,23.15
2024-01-09T06:20:56.631Z,22.48
2024-01-09T06:23:24.132Z,29.70
2024-01-09T06:25:51.800Z,21.25
2024-01-09T06:28:19.287Z,14.38
2024-01-09T06:30:46.778Z,25.95
2024-01-09T06:33:14.458Z,14.55
2024-01-09T06:35:42.078Z,21.58
2024-01-09T06:38:09.864Z,42.05
2024-01-09T06:40:37.318Z,25.63
2024-01-09T06:43:04.978Z,47.15
2024-01-09T06:45:38.659Z,29.25
2024-01-09T06:48:06.434Z,27.42
2024-01-09T06:50:38.417Z,33.72
2024-01-09T06:53:06.330Z,26.65
2024-01-09T06:55:34.040Z,22.70
2024-01-09T06:58:01.514Z,42.20
2024-01-09T07:00:29.112Z,33.40
2024-01-09T07:02:56.690Z,24.48
2024-01-09T07:05:24.341Z,24.95
2024-01-09T07:07:52.050Z,24.83
2024-01-09T07:10:19.830Z,32.50
2024-01-09T07:12:47.358Z,14.30
2024-01-09T07:15:16.882Z,21.38
2024-01-09T07:20:13.494Z,30.42
2024-01-09T07:22:43.066Z,25.20
2024-01-09T07:25:12.108Z,18.15
2024-01-09T07:27:39.551Z,29.17
2024-01-09T07:30:07.350Z,21.08
2024-01-09T07:32:34.859Z,29.35
2024-01-09T07:35:02.358Z,46.47
2024-01-09T07:37:29.821Z,63.75
2024-01-09T07:39:57.333Z,41.22
2024-01-09T07:42:24.764Z,63.97
2024-01-09T07:44:52.270Z,45.10
2024-01-09T07:47:19.799Z,55.95
2024-01-09T07:49:47.390Z,27.30
2024-01-09T07:52:14.970Z,24.98
2024-01-09T07:54:43.114Z,31.90
2024-01-09T07:57:21.515Z,27.90
2024-01-09T07:59:50.795Z,18.13
2024-01-09T08:02:18.411Z,25.88
2024-01-09T08:04:45.925Z,14.18
2024-01-09T08:07:13.509Z,20.45
2024-01-09T08:09:40.901Z,21.40
2024-01-09T08:12:08.317Z,24.77
2024-01-09T08:14:35.569Z,16.75
2024-01-09T08:17:03.035Z,18.27
2024-01-09T08:19:30.525Z,17.40
2024-01-09T08:21:58.073Z,21.95
2024-01-09T08:24:25.488Z,12.38
2024-01-09T08:26:52.955Z,17.88
2024-01-09T08:29:20.451Z,29.48
2024-01-09T08:31:48.542Z,21.67
2024-01-09T08:34:16.816Z,20.00
2024-01-09T08:36:46.349Z,36.40
2024-01-09T08:39:17.145Z,19.38
2024-01-09T08:41:44.628Z,21.52
2024-01-09T08:44:12.313Z,19.38
2024-01-09T08:46:39.793Z,29.05
2024-01-09T08:49:07.423Z,19.17
2024-01-09T08:51:34.667Z,23.90
2024-01-09T08:54:02.198Z,24.63
2024-01-09T08:56:32.186Z,24.48
2024-01-09T08:59:00.220Z,28.77
2024-01-09T09:01:30.320Z,31.05
2024-01-09T09:03:57.843Z,30.98
2024-01-09T09:06:25.606Z,21.48
2024-01-09T09:08:53.100Z,8.18
2024-01-09T09:11:20.640Z,23.52
2024-01-09T09:13:48.243Z,21.52
2024-01-09T09:16:17.147Z,24.67
2024-01-09T09:18:46.194Z,16.25
2024-01-09T09:21:14.602Z,27.27
2024-01-09T09:23:46.093Z,42.22
2024-01-09T09:26:13.781Z,25.75
2024-01-09T09:28:55.179Z,27.75
2024-01-09T09:31:30.486Z,27.05
2024-01-09T09:33:58.130Z,18.83
2024-01-09T09:36:26.083Z,24.17
2024-01-09T09:38:55.029Z,24.08
2024-01-09T09:41:23.002Z,17.27
2024-01-09T09:43:53.734Z,22.27
2024-01-09T09:46:28.297Z,19.00
2024-01-09T09:48:57.035Z,14.57
2024-01-09T09:51:27.113Z,13.95
2024-01-09T09:53:55.769Z,23.40
2024-01-09T09:56:24.192Z,16.67
2024-01-09T09:58:53.333Z,10.98
2024-01-09T10:01:21.557Z,27.15
2024-01-09T10:03:58.729Z,17.00
2024-01-09T10:06:28.351Z,16.55
2024-01-09T10:08:56.530Z,35.38
2024-01-09T10:11:24.760Z,40.28
2024-01-09T10:13:52.803Z,43.88
2024-01-09T10:16:20.477Z,33.22
2024-01-09T10:18:48.648Z,44.10
2024-01-09T10:21:15.971Z,32.85
2024-01-09T10:23:44.100Z,37.80
2024-01-09T10:26:12.877Z,39.55
2024-01-09T10:28:40.447Z,28.45
2024-01-09T10:31:09.037Z,30.75
2024-01-09T10:33:41.462Z,17.58
2024-01-09T10:36:09.901Z,12.02
2024-01-09T10:38:38.808Z,20.15
2024-01-09T10:41:17.562Z,14.93
2024-01-09T10:43:49.013Z,13.82
2024-01-09T10:46:17.685Z,35.55
2024-01-09T10:48:46.222Z,20.95
2024-01-09T10:51:14.538Z,26.80
2024-01-09T10:53:43.472Z,14.60
2024-01-09T10:56:11.339Z,30.42
2024-01-09T10:58:44.401Z,48.13
2024-01-09T11:01:15.301Z,24.60
2024-01-09T11:03:44.670Z,106.10
2024-01-09T11:06:13.313Z,57.15
2024-01-09T11:08:44.451Z,21.80
2024-01-09T11:11:14.587Z,29.13
2024-01-09T11:16:12.992Z,10.48
2024-01-09T11:18:41.968Z,39.67
2024-01-09T11:21:11.168Z,50.35
2024-01-09T11:23:46.719Z,41.03
2024-01-09T11:26:14.712Z,42.92
2024-01-09T11:28:44.439Z,50.92
2024-01-09T11:31:18.410Z,17.58
2024-01-09T11:33:46.405Z,26.13
2024-01-09T11:36:14.217Z,45.30
2024-01-09T11:38:41.757Z,44.38
2024-01-09T11:41:12.738Z,27.45
2024-01-09T11:44:16.899Z,65.82
2024-01-09T11:46:44.953Z,30.80
2024-01-09T11:49:12.987Z,55.58
2024-01-09T11:51:40.588Z,48.53
2024-01-09T11:54:10.893Z,30.35
2024-01-09T11:56:38.992Z,36.17
2024-01-09T11:59:06.517Z,47.47
2024-01-09T12:01:35.169Z,21.13
2024-01-09T12:04:03.080Z,24.23
2024-01-09T12:06:36.503Z,15.73
2024-01-09T12:09:04.223Z,22.35
2024-01-09T12:11:38.541Z,26.75
2024-01-09T12:14:09.216Z,15.18
2024-01-09T12:16:36.648Z,15.60
2024-01-09T12:19:06.367Z,26.27
2024-01-09T12:21:36.346Z,21.10
2024-01-09T12:24:20.701Z,26.00
2024-01-09T12:26:52.629Z,12.02
2024-01-09T12:29:20.245Z,29.83
2024-01-09T12:31:47.772Z,31.55
2024-01-09T12:34:16.349Z,38.63
2024-01-09T12:36:43.910Z,34.95
2024-01-09T12:39:14.222Z,23.25
2024-01-09T12:41:42.375Z,29.95
2024-01-09T12:44:10.899Z,36.58
2024-01-09T12:46:38.358Z,19.30
2024-01-09T12:49:06.745Z,28.38
2024-01-09T12:51:34.342Z,24.35
2024-01-09T12:54:01.966Z,25.05
2024-01-09T12:56:29.949Z,39.53
2024-01-09T12:58:58.069Z,45.95
2024-01-09T13:01:30.905Z,31.20
2024-01-09T13:04:00.614Z,38.85
2024-01-09T13:06:28.562Z,32.60
2024-01-09T13:08:56.422Z,18.63
2024-01-09T13:11:24.159Z,22.98
2024-01-09T13:13:51.844Z,25.83
2024-01-09T13:16:19.591Z,25.95
2024-01-09T13:18:49.226Z,22.92
2024-01-09T13:21:17.006Z,11.70
2024-01-09T13:23:50.146Z,16.08
2024-01-09T13:26:20.219Z,14.48
2024-01-09T13:30:43.393Z,23.20
2024-01-09T13:31:36.194Z,25.58
2024-01-09T13:34:05.271Z,12.48
2024-01-09T13:36:32.971Z,17.17
2024-01-09T13:39:00.583Z,8.77
2024-01-09T13:41:29.193Z,14.23
2024-01-09T13:43:58.351Z,10.40
2024-01-09T13:46:26.022Z,15.68
2024-01-09T13:48:56.512Z,14.32
2024-01-09T13:51:50.040Z,9.05
2024-01-09T13:54:13.275Z,25.30
2024-01-09T13:56:40.730Z,11.05
2024-01-09T13:59:09.189Z,14.95
2024-01-09T14:01:40.704Z,6.90
2024-01-09T14:04:18.587Z,11.85
2024-01-09T14:06:48.252Z,14.85
2024-01-09T14:09:15.988Z,15.43
2024-01-09T14:11:43.925Z,10.60
2024-01-09T14:14:11.957Z,16.20
2024-01-09T14:16:40.397Z,20.95
2024-01-09T14:19:10.538Z,17.25
2024-01-09T14:21:38.519Z,14.15
2024-01-09T14:24:06.045Z,17.45
2024-01-09T14:26:33.442Z,9.77
2024-01-09T14:29:00.936Z,23.08
2024-01-09T14:31:28.403Z,14.30
2024-01-09T14:33:55.951Z,17.40
2024-01-09T14:36:23.526Z,13.18
2024-01-09T14:38:50.925Z,8.25
2024-01-09T14:41:19.239Z,9.80
2024-01-09T14:43:46.801Z,18.17
2024-01-09T14:46:17.029Z,11.57
2024-01-09T14:48:44.235Z,11.85
2024-01-09T14:51:11.480Z,22.55
2024-01-09T14:53:38.848Z,22.08
2024-01-09T14:56:06.645Z,22.50
2024-01-09T14:58:34.544Z,6.80
2024-01-09T15:01:03.472Z,14.77
2024-01-09T15:03:30.987Z,4.22
2024-01-09T15:05:58.490Z,14.52
2024-01-09T15:08:26.060Z,26.42
2024-01-09T15:10:53.650Z,23.10
2024-01-09T15:13:21.448Z,12.65
2024-01-09T15:15:49.200Z,8.35
2024-01-09T15:18:16.799Z,16.23
2024-01-09T15:20:44.109Z,11.77
2024-01-09T15:23:13.734Z,13.93
2024-01-09T15:25:41.604Z,12.02
2024-01-09T15:28:09.673Z,16.55
2024-01-09T15:30:37.198Z,8.30
2024-01-09T15:33:09.302Z,20.40
2024-01-09T15:35:37.501Z,22.80
2024-01-09T15:38:05.467Z,25.42
2024-01-09T15:40:37.234Z,21.88
2024-01-09T15:43:07.161Z,28.25
2024-01-09T15:45:34.625Z,19.90
2024-01-09T15:48:02.263Z,11.35
2024-01-09T15:50:29.847Z,8.60
2024-01-09T15:52:57.503Z,9.50
2024-01-09T15:55:25.100Z,11.70
2024-01-09T15:57:52.557Z,10.43
2024-01-09T16:00:21.004Z,8.73
2024-01-09T16:02:48.578Z,8.32
2024-01-09T16:05:16.193Z,3.33
2024-01-09T16:07:44.087Z,10.95
2024-01-09T16:10:11.619Z,7.63
2024-01-09T16:12:42.619Z,10.05
2024-01-09T16:15:10.942Z,1.38
2024-01-09T16:17:38.430Z,9.00
2024-01-09T16:20:06.388Z,7.57
2024-01-09T16:22:33.932Z,14.32
2024-01-09T16:25:01.010Z,6.35
2024-01-09T16:27:28.119Z,10.85
2024-01-09T16:29:55.549Z,6.15
2024-01-09T16:32:23.248Z,2.63
2024-01-09T16:34:50.807Z,11.23
2024-01-09T16:37:18.307Z,14.65
2024-01-09T16:39:45.677Z,5.85
2024-01-09T16:42:13.132Z,11.07
2024-01-09T16:44:40.520Z,3.03
2024-01-09T16:47:08.236Z,16.60
2024-01-09T16:49:35.820Z,2.83
2024-01-09T16:52:04.563Z,2.10
2024-01-09T16:54:31.642Z,9.13
2024-01-09T16:56:59.105Z,6.05
2024-01-09T16:59:26.647Z,7.15
2024-01-09T17:01:54.868Z,12.82
2024-01-09T17:04:23.669Z,1.50
2024-01-09T17:06:51.141Z,3.08
2024-01-09T17:09:18.670Z,5.88
2024-01-09T17:11:46.115Z,4.90
2024-01-09T17:14:13.724Z,3.33
2024-01-09T17:16:45.750Z,9.02
2024-01-09T17:19:13.928Z,3.65
2024-01-09T17:21:41.454Z,11.05
2024-01-09T17:24:08.890Z,2.67
2024-01-09T17:26:36.497Z,9.43
2024-01-09T17:29:05.230Z,4.72
2024-01-09T17:31:33.557Z,5.55
2024-01-09T17:34:02.838Z,6.40
2024-01-09T17:36:30.342Z,5.22
2024-01-09T17:38:57.830Z,4.95
2024-01-09T17:41:25.513Z,3.28
2024-01-09T17:43:54.052Z,4.78
2024-01-09T17:46:21.571Z,2.40
2024-01-09T17:48:49.235Z,2.58
2024-01-09T17:51:16.681Z,2.33
2024-01-09T17:53:44.073Z,6.13
2024-01-09T17:56:11.572Z,2.40
2024-01-09T17:58:40.069Z,4.05
2024-01-09T18:01:09.232Z,0.60
2024-01-09T18:03:36.822Z,1.60
2024-01-09T18:06:04.530Z,2.63
2024-01-09T18:08:31.992Z,2.00
2024-01-09T18:11:03.111Z,2.10
2024-01-09T18:13:31.177Z,1.63
2024-01-09T18:15:58.647Z,0.85
2024-01-09T18:18:30.230Z,3.90
2024-01-09T18:20:57.667Z,2.65
2024-01-09T18:23:25.117Z,4.32
2024-01-09T18:25:52.754Z,2.83
2024-01-09T18:28:28.652Z,3.67
2024-01-09T18:30:57.812Z,3.47
2024-01-09T18:33:25.434Z,3.35
2024-01-09T18:35:54.643Z,3.60
2024-01-09T18:38:22.258Z,1.58
2024-01-09T18:40:49.818Z,3.28
2024-01-09T18:43:18.233Z,1.73
2024-01-09T18:45:45.943Z,2.25
2024-01-09T18:48:15.624Z,4.38
2024-01-09T18:50:46.021Z,1.30
2024-01-09T18:53:17.387Z,2.40
2024-01-09T18:55:45.329Z,1.52
2024-01-09T18:58:13.277Z,1.27
2024-01-09T19:00:41.252Z,2.15
2024-01-09T19:03:10.222Z,1.98
2024-01-09T19:05:38.376Z,1.17
2024-01-09T19:08:06.158Z,2.38
2024-01-09T19:10:33.913Z,1.50
2024-01-09T19:13:01.417Z,0.82
2024-01-09T19:15:28.800Z,2.05
2024-01-09T19:17:56.461Z,1.48
2024-01-09T19:20:24.470Z,1.23
2024-01-09T19:22:57.434Z,0.73
2024-01-09T19:25:25.857Z,1.10
2024-01-09T19:27:53.594Z,1.95
2024-01-09T19:30:21.677Z,4.72
2024-01-09T19:32:49.674Z,1.02
2024-01-09T19:35:17.300Z,1.20
2024-01-09T19:37:45.473Z,1.52
2024-01-09T19:40:13.184Z,0.85
2024-01-09T19:42:40.729Z,1.98
2024-01-09T19:45:08.654Z,3.42
2024-01-09T19:47:36.106Z,0.85
2024-01-09T19:50:03.666Z,0.73
2024-01-09T19:52:31.959Z,1.65
2024-01-09T19:55:00.177Z,4.05
2024-01-09T19:57:29.788Z,1.90
2024-01-09T19:59:58.077Z,1.05
2024-01-09T20:02:25.617Z,1.88
2024-01-09T20:04:53.617Z,2.60
2024-01-09T20:07:21.588Z,4.43
2024-01-09T20:09:50.478Z,0.85
2024-01-09T20:12:17.882Z,0.93
2024-01-09T20:14:45.117Z,0.98
2024-01-09T20:17:12.564Z,1.23
2024-01-09T20:19:44.005Z,1.75
2024-01-09T20:22:15.130Z,1.08
2024-01-09T20:24:50.545Z,0.50
2024-01-09T20:27:18.099Z,3.20
2024-01-09T20:29:45.665Z,4.50
2024-01-09T20:32:13.227Z,2.83
2024-01-09T20:34:41.411Z,3.88
2024-01-09T20:37:08.876Z,0.65
2024-01-09T20:39:36.280Z,1.58
2024-01-09T20:42:05.861Z,2.53
2024-01-09T20:44:33.462Z,1.73
2024-01-09T20:47:00.940Z,1.15
2024-01-09T20:49:28.534Z,1.30
2024-01-09T20:51:56.146Z,1.48
2024-01-09T20:54:24.388Z,3.05
2024-01-09T20:56:51.974Z,5.20
2024-01-09T20:59:20.649Z,0.75
2024-01-09T21:01:48.124Z,4.00
2024-01-09T21:04:15.659Z,1.42
2024-01-09T21:06:47.190Z,2.35
2024-01-09T21:09:15.275Z,1.40
2024-01-09T21:11:44.372Z,2.50
2024-01-09T21:14:11.915Z,0.82
2024-01-09T21:16:39.570Z,1.15
2024-01-09T21:19:07.322Z,1.27
2024-01-09T21:21:34.834Z,0.15
2024-01-09T21:24:03.531Z,1.95
2024-01-09T21:26:31.094Z,1.13
2024-01-09T21:28:58.642Z,2.17
2024-01-09T21:31:26.168Z,1.45
2024-01-09T21:33:54.010Z,1.38
2024-01-09T21:36:21.472Z,0.98
2024-01-09T21:38:49.172Z,0.88
2024-01-09T21:41:16.805Z,1.75
2024-01-09T21:43:44.260Z,0.98
2024-01-09T21:46:13.833Z,2.85
2024-01-09T21:48:41.603Z,2.75
2024-01-09T21:51:09.197Z,1.60
2024-01-09T21:53:36.611Z,1.95
2024-01-09T21:56:04.126Z,0.55
2024-01-09T21:58:32.121Z,0.88
2024-01-09T22:01:00.975Z,3.17
2024-01-09T22:03:28.878Z,1.42
2024-01-09T22:05:56.542Z,0.90
2024-01-09T22:08:23.987Z,1.73
2024-01-09T22:10:53.124Z,0.60
2024-01-09T22:13:20.562Z,1.92
2024-01-09T22:15:48.327Z,2.65
2024-01-09T22:18:16.217Z,1.17
2024-01-09T22:20:43.894Z,0.93
2024-01-09T22:23:11.397Z,1.95
2024-01-09T22:25:39.115Z,2.53
2024-01-09T22:28:06.815Z,3.00
2024-01-09T22:30:34.332Z,0.20
2024-01-09T22:33:02.645Z,0.75
2024-01-09T22:35:30.209Z,1.02
2024-01-09T22:37:57.639Z,3.08
2024-01-09T22:40:25.357Z,0.73
2024-01-09T22:42:52.774Z,2.20
2024-01-09T22:45:20.150Z,1.42
2024-01-09T22:47:47.636Z,0.50
2024-01-09T22:50:15.162Z,1.05
2024-01-09T22:52:42.666Z,2.50
2024-01-09T22:55:10.423Z,2.42
2024-01-09T22:57:38.286Z,0.98
2024-01-09T23:00:20.972Z,1.15
2024-01-09T23:02:48.671Z,1.67
2024-01-09T23:05:19.477Z,1.70
2024-01-09T23:07:47.500Z,1.02
2024-01-09T23:10:14.985Z,1.42
2024-01-09T23:12:42.426Z,0.75
2024-01-09T23:15:10.428Z,1.30
2024-01-09T23:17:38.265Z,1.08
2024-01-09T23:20:06.350Z,1.20
2024-01-09T23:22:36.798Z,0.95
2024-01-09T23:25:07.509Z,1.27
2024-01-09T23:27:35.104Z,3.65
2024-01-09T23:30:02.548Z,1.33
2024-01-09T23:32:30.277Z,1.23
2024-01-09T23:35:01.945Z,0.95
2024-01-09T23:37:32.550Z,1.25
2024-01-09T23:40:00.126Z,2.40
2024-01-09T23:42:27.901Z,1.35
2024-01-09T23:44:56.427Z,3.58
2024-01-09T23:47:24.072Z,1.73
2024-01-09T23:49:51.603Z,1.30
2024-01-09T23:52:19.123Z,1.20
2024-01-09T23:54:48.125Z,1.48
2024-01-09T23:57:16.101Z,5.00
2024-01-09T23:59:44.772Z,0.93
